sensor_id;sensor_type;location;lat;lon;timestamp;P1;durP1;ratioP1;P2;durP2;ratioP2
2488;SDS011;1255;48.716;9.124;2023-06-10T00:00:03;4.70;;;4.30;;
2488;SDS011;1255;48.716;9.124;2023-06-10T00:02:32;5.17;;;4.77;;
2488;SDS011;1255;48.716;9.124;2023-06-10T00:04:58;5.17;;;4.63;;
2488;SDS011;1255;48.716;9.124;2023-06-10T00:07:25;5.50;;;5.00;;
2488;SDS011;1255;48.716;9.124;2023-06-10T00:09:52;5.00;;;4.50;;
2488;SDS011;1255;48.716;9.124;2023-06-10T00:12:21;5.50;;;4.93;;
2488;SDS011;1255;48.716;9.124;2023-06-10T00:14:48;4.73;;;4.27;;
2488;SDS011;1255;48.716;9.124;2023-06-10T00:17:16;4.90;;;4.47;;
2488;SDS011;1255;48.716;9.124;2023-06-10T00:19:43;5.00;;;4.50;;
2488;SDS011;1255;48.716;9.124;2023-06-10T00:22:11;5.03;;;4.63;;
2488;SDS011;1255;48.716;9.124;2023-06-10T00:24:39;5.17;;;4.67;;
2488;SDS011;1255;48.716;9.124;2023-06-10T00:27:06;4.90;;;4.50;;
2488;SDS011;1255;48.716;9.124;2023-06-10T00:29:35;5.33;;;4.73;;
2488;SDS011;1255;48.716;9.124;2023-06-10T00:32:01;5.10;;;4.60;;
2488;SDS011;1255;48.716;9.124;2023-06-10T00:34:29;6.33;;;4.77;;
2488;SDS011;1255;48.716;9.124;2023-06-10T00:36:56;5.13;;;4.63;;
2488;SDS011;1255;48.716;9.124;2023-06-10T00:39:22;5.10;;;4.60;;
2488;SDS011;1255;48.716;9.124;2023-06-10T00:41:49;6.10;;;4.77;;
2488;SDS011;1255;48.716;9.124;2023-06-10T00:44:16;6.10;;;4.83;;
2488;SDS011;1255;48.716;9.124;2023-06-10T00:46:44;5.93;;;5.30;;
2488;SDS011;1255;48.716;9.124;2023-06-10T00:49:11;6.27;;;5.67;;
2488;SDS011;1255;48.716;9.124;2023-06-10T00:51:38;5.30;;;4.80;;
2488;SDS011;1255;48.716;9.124;2023-06-10T00:54:05;4.90;;;4.50;;
2488;SDS011;1255;48.716;9.124;2023-06-10T00:56:33;5.80;;;5.03;;
2488;SDS011;1255;48.716;9.124;2023-06-10T00:59:01;5.37;;;4.87;;
2488;SDS011;1255;48.716;9.124;2023-06-10T01:01:28;5.47;;;4.97;;
2488;SDS011;1255;48.716;9.124;2023-06-10T01:03:56;6.57;;;5.30;;
2488;SDS011;1255;48.716;9.124;2023-06-10T01:06:24;5.60;;;5.10;;
2488;SDS011;1255;48.716;9.124;2023-06-10T01:09:01;5.80;;;5.10;;
2488;SDS011;1255;48.716;9.124;2023-06-10T01:11:45;5.70;;;5.20;;
2488;SDS011;1255;48.716;9.124;2023-06-10T01:14:18;5.67;;;5.10;;
2488;SDS011;1255;48.716;9.124;2023-06-10T01:16:45;5.67;;;5.03;;
2488;SDS011;1255;48.716;9.124;2023-06-10T01:19:14;5.33;;;4.83;;
2488;SDS011;1255;48.716;9.124;2023-06-10T01:21:44;5.57;;;4.83;;
2488;SDS011;1255;48.716;9.124;2023-06-10T01:24:13;6.03;;;5.00;;
2488;SDS011;1255;48.716;9.124;2023-06-10T01:26:43;5.90;;;5.40;;
2488;SDS011;1255;48.716;9.124;2023-06-10T01:29:14;5.60;;;5.10;;
2488;SDS011;1255;48.716;9.124;2023-06-10T01:31:46;5.37;;;4.87;;
2488;SDS011;1255;48.716;9.124;2023-06-10T01:34:18;6.23;;;5.50;;
2488;SDS011;1255;48.716;9.124;2023-06-10T01:36:47;4.70;;;4.30;;
2488;SDS011;1255;48.716;9.124;2023-06-10T01:39:15;6.30;;;5.10;;
2488;SDS011;1255;48.716;9.124;2023-06-10T01:41:43;6.80;;;5.30;;
2488;SDS011;1255;48.716;9.124;2023-06-10T01:44:10;8.00;;;5.27;;
2488;SDS011;1255;48.716;9.124;2023-06-10T01:46:37;4.80;;;4.40;;
2488;SDS011;1255;48.716;9.124;2023-06-10T01:49:03;5.17;;;4.77;;
2488;SDS011;1255;48.716;9.124;2023-06-10T01:51:30;5.27;;;4.80;;
2488;SDS011;1255;48.716;9.124;2023-06-10T01:53:58;5.47;;;5.00;;
2488;SDS011;1255;48.716;9.124;2023-06-10T01:56:25;6.90;;;5.13;;
2488;SDS011;1255;48.716;9.124;2023-06-10T01:58:52;5.73;;;5.17;;
2488;SDS011;1255;48.716;9.124;2023-06-10T02:01:20;5.53;;;5.10;;
2488;SDS011;1255;48.716;9.124;2023-06-10T02:03:47;6.77;;;5.10;;
2488;SDS011;1255;48.716;9.124;2023-06-10T02:06:13;5.27;;;4.73;;
2488;SDS011;1255;48.716;9.124;2023-06-10T02:08:40;5.97;;;5.33;;
2488;SDS011;1255;48.716;9.124;2023-06-10T02:11:08;5.90;;;5.30;;
2488;SDS011;1255;48.716;9.124;2023-06-10T02:13:35;6.10;;;5.50;;
2488;SDS011;1255;48.716;9.124;2023-06-10T02:16:02;5.20;;;4.80;;
2488;SDS011;1255;48.716;9.124;2023-06-10T02:18:28;4.80;;;4.40;;
2488;SDS011;1255;48.716;9.124;2023-06-10T02:20:55;6.27;;;5.67;;
2488;SDS011;1255;48.716;9.124;2023-06-10T02:23:22;5.93;;;5.40;;
2488;SDS011;1255;48.716;9.124;2023-06-10T02:25:49;5.17;;;4.77;;
2488;SDS011;1255;48.716;9.124;2023-06-10T02:28:17;5.70;;;5.00;;
2488;SDS011;1255;48.716;9.124;2023-06-10T02:30:43;6.07;;;5.47;;
2488;SDS011;1255;48.716;9.124;2023-06-10T02:33:11;6.10;;;5.50;;
2488;SDS011;1255;48.716;9.124;2023-06-10T02:35:39;5.27;;;4.83;;
2488;SDS011;1255;48.716;9.124;2023-06-10T02:38:05;6.40;;;5.80;;
2488;SDS011;1255;48.716;9.124;2023-06-10T02:40:32;5.53;;;5.00;;
2488;SDS011;1255;48.716;9.124;2023-06-10T02:42:59;5.40;;;4.90;;
2488;SDS011;1255;48.716;9.124;2023-06-10T02:45:27;10.20;;;6.07;;
2488;SDS011;1255;48.716;9.124;2023-06-10T02:47:53;6.30;;;5.63;;
2488;SDS011;1255;48.716;9.124;2023-06-10T02:50:20;6.03;;;5.43;;
2488;SDS011;1255;48.716;9.124;2023-06-10T02:52:47;5.43;;;4.93;;
2488;SDS011;1255;48.716;9.124;2023-06-10T02:55:14;6.77;;;5.80;;
2488;SDS011;1255;48.716;9.124;2023-06-10T02:57:41;6.67;;;6.03;;
2488;SDS011;1255;48.716;9.124;2023-06-10T03:00:08;6.30;;;5.70;;
2488;SDS011;1255;48.716;9.124;2023-06-10T03:02:37;5.13;;;4.73;;
2488;SDS011;1255;48.716;9.124;2023-06-10T03:05:05;5.93;;;5.33;;
2488;SDS011;1255;48.716;9.124;2023-06-10T03:07:35;5.80;;;5.30;;
2488;SDS011;1255;48.716;9.124;2023-06-10T03:10:02;5.67;;;5.10;;
2488;SDS011;1255;48.716;9.124;2023-06-10T03:12:29;5.17;;;4.73;;
2488;SDS011;1255;48.716;9.124;2023-06-10T03:14:56;5.00;;;4.60;;
2488;SDS011;1255;48.716;9.124;2023-06-10T03:17:24;6.03;;;5.53;;
2488;SDS011;1255;48.716;9.124;2023-06-10T03:19:52;6.90;;;5.57;;
2488;SDS011;1255;48.716;9.124;2023-06-10T03:22:18;7.10;;;5.57;;
2488;SDS011;1255;48.716;9.124;2023-06-10T03:24:45;5.10;;;4.70;;
2488;SDS011;1255;48.716;9.124;2023-06-10T03:27:15;5.40;;;4.90;;
2488;SDS011;1255;48.716;9.124;2023-06-10T03:29:42;5.67;;;5.10;;
2488;SDS011;1255;48.716;9.124;2023-06-10T03:32:09;5.63;;;5.17;;
2488;SDS011;1255;48.716;9.124;2023-06-10T03:34:36;5.23;;;4.83;;
2488;SDS011;1255;48.716;9.124;2023-06-10T03:37:05;6.00;;;5.50;;
2488;SDS011;1255;48.716;9.124;2023-06-10T03:39:32;5.53;;;4.70;;
2488;SDS011;1255;48.716;9.124;2023-06-10T03:41:59;5.80;;;5.20;;
2488;SDS011;1255;48.716;9.124;2023-06-10T03:44:25;6.63;;;5.60;;
2488;SDS011;1255;48.716;9.124;2023-06-10T03:46:52;6.40;;;4.63;;
2488;SDS011;1255;48.716;9.124;2023-06-10T03:49:19;5.93;;;5.40;;
2488;SDS011;1255;48.716;9.124;2023-06-10T03:51:46;5.27;;;4.77;;
2488;SDS011;1255;48.716;9.124;2023-06-10T03:54:14;5.80;;;5.07;;
2488;SDS011;1255;48.716;9.124;2023-06-10T03:56:41;5.90;;;5.30;;
2488;SDS011;1255;48.716;9.124;2023-06-10T03:59:08;5.37;;;4.83;;
2488;SDS011;1255;48.716;9.124;2023-06-10T04:01:34;4.93;;;4.50;;
2488;SDS011;1255;48.716;9.124;2023-06-10T04:04:02;6.63;;;5.10;;
2488;SDS011;1255;48.716;9.124;2023-06-10T04:06:29;6.27;;;4.87;;
2488;SDS011;1255;48.716;9.124;2023-06-10T04:08:56;5.40;;;4.80;;
2488;SDS011;1255;48.716;9.124;2023-06-10T04:11:24;5.30;;;4.80;;
2488;SDS011;1255;48.716;9.124;2023-06-10T04:13:51;4.93;;;4.27;;
2488;SDS011;1255;48.716;9.124;2023-06-10T04:16:18;5.70;;;5.00;;
2488;SDS011;1255;48.716;9.124;2023-06-10T04:18:46;4.90;;;4.47;;
2488;SDS011;1255;48.716;9.124;2023-06-10T04:21:12;5.90;;;5.07;;
2488;SDS011;1255;48.716;9.124;2023-06-10T04:23:39;5.03;;;4.20;;
2488;SDS011;1255;48.716;9.124;2023-06-10T04:26:06;4.53;;;4.13;;
2488;SDS011;1255;48.716;9.124;2023-06-10T04:28:35;5.10;;;4.60;;
2488;SDS011;1255;48.716;9.124;2023-06-10T04:31:01;5.47;;;4.97;;
2488;SDS011;1255;48.716;9.124;2023-06-10T04:33:29;5.40;;;4.90;;
2488;SDS011;1255;48.716;9.124;2023-06-10T04:35:55;5.97;;;4.67;;
2488;SDS011;1255;48.716;9.124;2023-06-10T04:38:22;4.90;;;4.50;;
2488;SDS011;1255;48.716;9.124;2023-06-10T04:40:49;4.80;;;4.40;;
2488;SDS011;1255;48.716;9.124;2023-06-10T04:43:16;5.13;;;4.73;;
2488;SDS011;1255;48.716;9.124;2023-06-10T04:45:44;4.80;;;4.40;;
2488;SDS011;1255;48.716;9.124;2023-06-10T04:48:11;5.00;;;4.50;;
2488;SDS011;1255;48.716;9.124;2023-06-10T04:50:38;5.87;;;5.10;;
2488;SDS011;1255;48.716;9.124;2023-06-10T04:53:04;5.27;;;4.83;;
2488;SDS011;1255;48.716;9.124;2023-06-10T04:55:32;5.37;;;4.87;;
2488;SDS011;1255;48.716;9.124;2023-06-10T04:57:59;5.07;;;4.57;;
2488;SDS011;1255;48.716;9.124;2023-06-10T05:00:26;5.17;;;4.67;;
2488;SDS011;1255;48.716;9.124;2023-06-10T05:02:54;5.30;;;4.80;;
2488;SDS011;1255;48.716;9.124;2023-06-10T05:05:21;4.40;;;4.00;;
2488;SDS011;1255;48.716;9.124;2023-06-10T05:07:47;4.77;;;4.37;;
2488;SDS011;1255;48.716;9.124;2023-06-10T05:10:14;5.50;;;4.90;;
2488;SDS011;1255;48.716;9.124;2023-06-10T05:12:41;5.20;;;4.70;;
2488;SDS011;1255;48.716;9.124;2023-06-10T05:15:08;3.80;;;3.50;;
2488;SDS011;1255;48.716;9.124;2023-06-10T05:17:35;4.77;;;4.30;;
2488;SDS011;1255;48.716;9.124;2023-06-10T05:20:03;6.40;;;4.33;;
2488;SDS011;1255;48.716;9.124;2023-06-10T05:22:31;5.17;;;4.57;;
2488;SDS011;1255;48.716;9.124;2023-06-10T05:24:58;6.73;;;4.20;;
2488;SDS011;1255;48.716;9.124;2023-06-10T05:27:24;5.20;;;4.70;;
2488;SDS011;1255;48.716;9.124;2023-06-10T05:29:51;4.43;;;4.03;;
2488;SDS011;1255;48.716;9.124;2023-06-10T05:32:18;4.30;;;3.90;;
2488;SDS011;1255;48.716;9.124;2023-06-10T05:34:44;4.63;;;4.13;;
2488;SDS011;1255;48.716;9.124;2023-06-10T05:37:13;4.57;;;4.17;;
2488;SDS011;1255;48.716;9.124;2023-06-10T05:39:40;5.63;;;4.77;;
2488;SDS011;1255;48.716;9.124;2023-06-10T05:42:07;4.20;;;3.80;;
2488;SDS011;1255;48.716;9.124;2023-06-10T05:44:34;3.43;;;3.13;;
2488;SDS011;1255;48.716;9.124;2023-06-10T05:47:01;3.80;;;3.50;;
2488;SDS011;1255;48.716;9.124;2023-06-10T05:49:27;4.27;;;3.87;;
2488;SDS011;1255;48.716;9.124;2023-06-10T05:51:54;4.67;;;4.20;;
2488;SDS011;1255;48.716;9.124;2023-06-10T05:54:24;3.87;;;3.50;;
2488;SDS011;1255;48.716;9.124;2023-06-10T05:56:51;4.20;;;3.80;;
2488;SDS011;1255;48.716;9.124;2023-06-10T05:59:18;4.37;;;3.97;;
2488;SDS011;1255;48.716;9.124;2023-06-10T06:01:45;4.53;;;4.13;;
2488;SDS011;1255;48.716;9.124;2023-06-10T06:04:11;4.50;;;4.07;;
2488;SDS011;1255;48.716;9.124;2023-06-10T06:06:38;5.07;;;4.63;;
2488;SDS011;1255;48.716;9.124;2023-06-10T06:09:06;4.50;;;4.10;;
2488;SDS011;1255;48.716;9.124;2023-06-10T06:11:34;4.00;;;3.70;;
2488;SDS011;1255;48.716;9.124;2023-06-10T06:14:01;5.20;;;4.20;;
2488;SDS011;1255;48.716;9.124;2023-06-10T06:16:28;4.60;;;4.20;;
2488;SDS011;1255;48.716;9.124;2023-06-10T06:18:54;4.27;;;3.83;;
2488;SDS011;1255;48.716;9.124;2023-06-10T06:21:21;5.10;;;4.50;;
2488;SDS011;1255;48.716;9.124;2023-06-10T06:23:48;4.40;;;4.03;;
2488;SDS011;1255;48.716;9.124;2023-06-10T06:26:14;6.10;;;4.00;;
2488;SDS011;1255;48.716;9.124;2023-06-10T06:28:42;4.10;;;3.70;;
2488;SDS011;1255;48.716;9.124;2023-06-10T06:31:09;5.07;;;4.27;;
2488;SDS011;1255;48.716;9.124;2023-06-10T06:33:36;4.47;;;3.50;;
2488;SDS011;1255;48.716;9.124;2023-06-10T06:36:03;4.00;;;3.70;;
2488;SDS011;1255;48.716;9.124;2023-06-10T06:38:30;3.63;;;3.30;;
2488;SDS011;1255;48.716;9.124;2023-06-10T06:40:56;4.37;;;3.97;;
2488;SDS011;1255;48.716;9.124;2023-06-10T06:43:27;4.10;;;3.70;;
2488;SDS011;1255;48.716;9.124;2023-06-10T06:45:56;4.27;;;3.87;;
2488;SDS011;1255;48.716;9.124;2023-06-10T06:48:22;4.93;;;3.67;;
2488;SDS011;1255;48.716;9.124;2023-06-10T06:50:49;3.90;;;3.60;;
2488;SDS011;1255;48.716;9.124;2023-06-10T06:53:16;5.40;;;3.80;;
2488;SDS011;1255;48.716;9.124;2023-06-10T06:55:43;3.93;;;3.57;;
2488;SDS011;1255;48.716;9.124;2023-06-10T06:58:09;4.23;;;3.70;;
2488;SDS011;1255;48.716;9.124;2023-06-10T07:00:36;4.07;;;3.67;;
2488;SDS011;1255;48.716;9.124;2023-06-10T07:03:04;4.23;;;3.93;;
2488;SDS011;1255;48.716;9.124;2023-06-10T07:05:31;4.00;;;3.70;;
2488;SDS011;1255;48.716;9.124;2023-06-10T07:07:57;5.57;;;4.80;;
2488;SDS011;1255;48.716;9.124;2023-06-10T07:10:24;4.87;;;4.47;;
2488;SDS011;1255;48.716;9.124;2023-06-10T07:12:52;4.70;;;4.30;;
2488;SDS011;1255;48.716;9.124;2023-06-10T07:15:19;4.87;;;4.40;;
2488;SDS011;1255;48.716;9.124;2023-06-10T07:17:46;4.93;;;4.10;;
2488;SDS011;1255;48.716;9.124;2023-06-10T07:20:14;5.63;;;4.33;;
2488;SDS011;1255;48.716;9.124;2023-06-10T07:22:41;4.93;;;4.10;;
2488;SDS011;1255;48.716;9.124;2023-06-10T07:25:08;4.97;;;4.47;;
2488;SDS011;1255;48.716;9.124;2023-06-10T07:27:35;5.00;;;4.33;;
2488;SDS011;1255;48.716;9.124;2023-06-10T07:30:02;4.53;;;4.07;;
2488;SDS011;1255;48.716;9.124;2023-06-10T07:32:29;4.33;;;3.93;;
2488;SDS011;1255;48.716;9.124;2023-06-10T07:34:56;4.27;;;3.87;;
2488;SDS011;1255;48.716;9.124;2023-06-10T07:37:24;4.23;;;3.83;;
2488;SDS011;1255;48.716;9.124;2023-06-10T07:39:51;4.50;;;4.10;;
2488;SDS011;1255;48.716;9.124;2023-06-10T07:42:18;4.27;;;3.87;;
2488;SDS011;1255;48.716;9.124;2023-06-10T07:44:44;4.20;;;3.80;;
2488;SDS011;1255;48.716;9.124;2023-06-10T07:47:11;3.90;;;3.50;;
2488;SDS011;1255;48.716;9.124;2023-06-10T07:49:38;4.70;;;3.80;;
2488;SDS011;1255;48.716;9.124;2023-06-10T07:52:07;5.60;;;3.93;;
2488;SDS011;1255;48.716;9.124;2023-06-10T07:54:35;4.23;;;3.87;;
2488;SDS011;1255;48.716;9.124;2023-06-10T07:57:02;3.73;;;3.43;;
2488;SDS011;1255;48.716;9.124;2023-06-10T07:59:28;4.80;;;4.17;;
2488;SDS011;1255;48.716;9.124;2023-06-10T08:01:55;3.93;;;3.63;;
2488;SDS011;1255;48.716;9.124;2023-06-10T08:04:22;3.80;;;3.47;;
2488;SDS011;1255;48.716;9.124;2023-06-10T08:06:49;3.87;;;3.57;;
2488;SDS011;1255;48.716;9.124;2023-06-10T08:09:16;4.40;;;4.00;;
2488;SDS011;1255;48.716;9.124;2023-06-10T08:11:44;4.43;;;4.03;;
2488;SDS011;1255;48.716;9.124;2023-06-10T08:14:13;4.40;;;4.10;;
2488;SDS011;1255;48.716;9.124;2023-06-10T08:16:39;5.07;;;3.37;;
2488;SDS011;1255;48.716;9.124;2023-06-10T08:19:07;4.47;;;3.90;;
2488;SDS011;1255;48.716;9.124;2023-06-10T08:21:34;4.57;;;4.17;;
2488;SDS011;1255;48.716;9.124;2023-06-10T08:24:01;4.70;;;4.30;;
2488;SDS011;1255;48.716;9.124;2023-06-10T08:26:28;4.93;;;4.43;;
2488;SDS011;1255;48.716;9.124;2023-06-10T08:28:56;4.10;;;3.80;;
2488;SDS011;1255;48.716;9.124;2023-06-10T08:31:23;4.73;;;4.33;;
2488;SDS011;1255;48.716;9.124;2023-06-10T08:33:49;4.53;;;4.13;;
2488;SDS011;1255;48.716;9.124;2023-06-10T08:36:16;4.30;;;4.00;;
2488;SDS011;1255;48.716;9.124;2023-06-10T08:38:43;4.93;;;4.37;;
2488;SDS011;1255;48.716;9.124;2023-06-10T08:41:10;4.70;;;4.17;;
2488;SDS011;1255;48.716;9.124;2023-06-10T08:43:42;4.13;;;3.73;;
2488;SDS011;1255;48.716;9.124;2023-06-10T08:46:13;4.53;;;4.20;;
2488;SDS011;1255;48.716;9.124;2023-06-10T08:48:41;4.33;;;3.93;;
2488;SDS011;1255;48.716;9.124;2023-06-10T08:51:10;4.70;;;4.30;;
2488;SDS011;1255;48.716;9.124;2023-06-10T08:53:37;4.50;;;4.00;;
2488;SDS011;1255;48.716;9.124;2023-06-10T08:56:08;4.63;;;4.10;;
2488;SDS011;1255;48.716;9.124;2023-06-10T08:58:36;4.13;;;3.83;;
2488;SDS011;1255;48.716;9.124;2023-06-10T09:01:06;4.00;;;3.70;;
2488;SDS011;1255;48.716;9.124;2023-06-10T09:03:35;4.27;;;3.97;;
2488;SDS011;1255;48.716;9.124;2023-06-10T09:06:03;4.43;;;4.03;;
2488;SDS011;1255;48.716;9.124;2023-06-10T09:08:31;4.07;;;3.77;;
2488;SDS011;1255;48.716;9.124;2023-06-10T09:10:59;3.83;;;3.57;;
2488;SDS011;1255;48.716;9.124;2023-06-10T09:13:26;3.87;;;3.57;;
2488;SDS011;1255;48.716;9.124;2023-06-10T09:15:53;4.60;;;4.20;;
2488;SDS011;1255;48.716;9.124;2023-06-10T09:18:21;5.43;;;4.50;;
2488;SDS011;1255;48.716;9.124;2023-06-10T09:20:49;4.00;;;3.70;;
2488;SDS011;1255;48.716;9.124;2023-06-10T09:23:16;3.93;;;3.60;;
2488;SDS011;1255;48.716;9.124;2023-06-10T09:25:43;3.70;;;3.47;;
2488;SDS011;1255;48.716;9.124;2023-06-10T09:28:12;4.60;;;4.20;;
2488;SDS011;1255;48.716;9.124;2023-06-10T09:30:40;4.30;;;3.90;;
2488;SDS011;1255;48.716;9.124;2023-06-10T09:33:09;4.43;;;4.03;;
2488;SDS011;1255;48.716;9.124;2023-06-10T09:35:37;4.27;;;3.87;;
2488;SDS011;1255;48.716;9.124;2023-06-10T09:38:13;4.27;;;3.70;;
2488;SDS011;1255;48.716;9.124;2023-06-10T09:40:48;4.67;;;4.27;;
2488;SDS011;1255;48.716;9.124;2023-06-10T09:43:15;3.70;;;3.40;;
2488;SDS011;1255;48.716;9.124;2023-06-10T09:45:42;4.40;;;4.00;;
2488;SDS011;1255;48.716;9.124;2023-06-10T09:48:09;3.70;;;3.40;;
2488;SDS011;1255;48.716;9.124;2023-06-10T09:50:41;4.17;;;3.87;;
2488;SDS011;1255;48.716;9.124;2023-06-10T09:53:08;4.40;;;4.00;;
2488;SDS011;1255;48.716;9.124;2023-06-10T09:55:38;3.80;;;3.40;;
2488;SDS011;1255;48.716;9.124;2023-06-10T09:58:05;4.10;;;3.80;;
2488;SDS011;1255;48.716;9.124;2023-06-10T10:00:32;4.20;;;3.80;;
2488;SDS011;1255;48.716;9.124;2023-06-10T10:03:00;4.20;;;3.80;;
2488;SDS011;1255;48.716;9.124;2023-06-10T10:05:27;4.20;;;3.90;;
2488;SDS011;1255;48.716;9.124;2023-06-10T10:07:54;3.83;;;3.53;;
2488;SDS011;1255;48.716;9.124;2023-06-10T10:10:21;4.17;;;3.87;;
2488;SDS011;1255;48.716;9.124;2023-06-10T10:12:53;3.73;;;3.43;;
2488;SDS011;1255;48.716;9.124;2023-06-10T10:15:22;4.00;;;3.70;;
2488;SDS011;1255;48.716;9.124;2023-06-10T10:17:52;3.73;;;3.43;;
2488;SDS011;1255;48.716;9.124;2023-06-10T10:20:24;3.40;;;3.13;;
2488;SDS011;1255;48.716;9.124;2023-06-10T10:22:53;3.80;;;3.50;;
2488;SDS011;1255;48.716;9.124;2023-06-10T10:25:23;4.20;;;3.80;;
2488;SDS011;1255;48.716;9.124;2023-06-10T10:27:55;4.33;;;3.93;;
2488;SDS011;1255;48.716;9.124;2023-06-10T10:30:25;4.10;;;3.70;;
2488;SDS011;1255;48.716;9.124;2023-06-10T10:32:55;3.67;;;3.37;;
2488;SDS011;1255;48.716;9.124;2023-06-10T10:35:24;2.90;;;2.70;;
2488;SDS011;1255;48.716;9.124;2023-06-10T10:37:52;3.97;;;3.67;;
2488;SDS011;1255;48.716;9.124;2023-06-10T10:40:19;4.30;;;3.90;;
2488;SDS011;1255;48.716;9.124;2023-06-10T10:42:47;3.90;;;3.57;;
2488;SDS011;1255;48.716;9.124;2023-06-10T10:45:16;3.67;;;3.37;;
2488;SDS011;1255;48.716;9.124;2023-06-10T10:47:45;3.67;;;3.37;;
2488;SDS011;1255;48.716;9.124;2023-06-10T10:50:12;3.73;;;3.43;;
2488;SDS011;1255;48.716;9.124;2023-06-10T10:52:46;4.27;;;3.90;;
2488;SDS011;1255;48.716;9.124;2023-06-10T10:55:18;4.03;;;3.33;;
2488;SDS011;1255;48.716;9.124;2023-06-10T10:57:44;3.80;;;3.50;;
2488;SDS011;1255;48.716;9.124;2023-06-10T11:00:25;3.60;;;3.30;;
2488;SDS011;1255;48.716;9.124;2023-06-10T11:02:54;3.63;;;3.30;;
2488;SDS011;1255;48.716;9.124;2023-06-10T11:05:30;3.83;;;3.40;;
2488;SDS011;1255;48.716;9.124;2023-06-10T11:08:01;4.30;;;3.93;;
2488;SDS011;1255;48.716;9.124;2023-06-10T11:10:29;3.67;;;3.20;;
2488;SDS011;1255;48.716;9.124;2023-06-10T11:12:56;3.70;;;3.40;;
2488;SDS011;1255;48.716;9.124;2023-06-10T11:15:24;3.97;;;3.47;;
2488;SDS011;1255;48.716;9.124;2023-06-10T11:20:57;3.87;;;3.57;;
2488;SDS011;1255;48.716;9.124;2023-06-10T11:23:26;3.60;;;3.30;;
2488;SDS011;1255;48.716;9.124;2023-06-10T11:26:14;3.20;;;2.90;;
2488;SDS011;1255;48.716;9.124;2023-06-10T11:31:37;4.07;;;3.67;;
2488;SDS011;1255;48.716;9.124;2023-06-10T11:34:06;3.40;;;3.10;;
2488;SDS011;1255;48.716;9.124;2023-06-10T11:36:34;3.90;;;3.50;;
2488;SDS011;1255;48.716;9.124;2023-06-10T11:39:05;3.83;;;3.53;;
2488;SDS011;1255;48.716;9.124;2023-06-10T11:41:33;3.77;;;3.47;;
2488;SDS011;1255;48.716;9.124;2023-06-10T11:44:02;3.50;;;3.10;;
2488;SDS011;1255;48.716;9.124;2023-06-10T11:46:29;3.60;;;3.30;;
2488;SDS011;1255;48.716;9.124;2023-06-10T11:48:58;3.93;;;3.63;;
2488;SDS011;1255;48.716;9.124;2023-06-10T11:51:28;3.80;;;3.50;;
2488;SDS011;1255;48.716;9.124;2023-06-10T11:53:56;4.30;;;3.90;;
2488;SDS011;1255;48.716;9.124;2023-06-10T11:56:22;6.63;;;3.73;;
2488;SDS011;1255;48.716;9.124;2023-06-10T11:58:54;3.87;;;3.57;;
2488;SDS011;1255;48.716;9.124;2023-06-10T12:01:22;4.40;;;4.00;;
2488;SDS011;1255;48.716;9.124;2023-06-10T12:03:57;4.40;;;4.10;;
2488;SDS011;1255;48.716;9.124;2023-06-10T12:06:24;4.37;;;3.97;;
2488;SDS011;1255;48.716;9.124;2023-06-10T12:08:51;3.93;;;3.63;;
2488;SDS011;1255;48.716;9.124;2023-06-10T12:11:19;3.77;;;3.47;;
2488;SDS011;1255;48.716;9.124;2023-06-10T12:13:46;4.00;;;3.60;;
2488;SDS011;1255;48.716;9.124;2023-06-10T12:16:14;4.30;;;3.87;;
2488;SDS011;1255;48.716;9.124;2023-06-10T12:18:42;3.80;;;3.50;;
2488;SDS011;1255;48.716;9.124;2023-06-10T12:21:23;4.23;;;3.87;;
2488;SDS011;1255;48.716;9.124;2023-06-10T12:24:04;3.60;;;3.30;;
2488;SDS011;1255;48.716;9.124;2023-06-10T12:26:36;5.33;;;4.03;;
2488;SDS011;1255;48.716;9.124;2023-06-10T12:31:54;4.73;;;4.33;;
2488;SDS011;1255;48.716;9.124;2023-06-10T12:34:27;3.93;;;3.63;;
2488;SDS011;1255;48.716;9.124;2023-06-10T12:36:57;4.17;;;3.80;;
2488;SDS011;1255;48.716;9.124;2023-06-10T12:39:23;3.70;;;3.40;;
2488;SDS011;1255;48.716;9.124;2023-06-10T12:41:50;4.80;;;3.77;;
2488;SDS011;1255;48.716;9.124;2023-06-10T12:44:18;4.20;;;3.80;;
2488;SDS011;1255;48.716;9.124;2023-06-10T12:46:54;3.97;;;3.67;;
2488;SDS011;1255;48.716;9.124;2023-06-10T12:49:20;3.93;;;3.50;;
2488;SDS011;1255;48.716;9.124;2023-06-10T12:51:47;3.70;;;3.40;;
2488;SDS011;1255;48.716;9.124;2023-06-10T12:54:15;3.50;;;3.20;;
2488;SDS011;1255;48.716;9.124;2023-06-10T12:56:42;4.07;;;3.77;;
2488;SDS011;1255;48.716;9.124;2023-06-10T12:59:09;3.87;;;3.57;;
2488;SDS011;1255;48.716;9.124;2023-06-10T13:01:37;3.90;;;3.60;;
2488;SDS011;1255;48.716;9.124;2023-06-10T13:04:04;3.53;;;3.23;;
2488;SDS011;1255;48.716;9.124;2023-06-10T13:06:32;4.63;;;4.13;;
2488;SDS011;1255;48.716;9.124;2023-06-10T13:09:01;3.80;;;3.50;;
2488;SDS011;1255;48.716;9.124;2023-06-10T13:11:31;3.73;;;3.43;;
2488;SDS011;1255;48.716;9.124;2023-06-10T13:13:58;4.20;;;3.80;;
2488;SDS011;1255;48.716;9.124;2023-06-10T13:16:25;3.70;;;3.40;;
2488;SDS011;1255;48.716;9.124;2023-06-10T13:18:52;4.00;;;3.70;;
2488;SDS011;1255;48.716;9.124;2023-06-10T13:21:19;3.70;;;3.40;;
2488;SDS011;1255;48.716;9.124;2023-06-10T13:23:46;3.60;;;3.33;;
2488;SDS011;1255;48.716;9.124;2023-06-10T13:26:13;3.90;;;3.60;;
2488;SDS011;1255;48.716;9.124;2023-06-10T13:28:42;3.77;;;3.40;;
2488;SDS011;1255;48.716;9.124;2023-06-10T13:31:09;4.07;;;3.77;;
2488;SDS011;1255;48.716;9.124;2023-06-10T13:33:36;3.60;;;3.30;;
2488;SDS011;1255;48.716;9.124;2023-06-10T13:36:03;4.10;;;3.80;;
2488;SDS011;1255;48.716;9.124;2023-06-10T13:38:30;4.53;;;4.13;;
2488;SDS011;1255;48.716;9.124;2023-06-10T13:40:57;3.60;;;3.30;;
2488;SDS011;1255;48.716;9.124;2023-06-10T13:43:24;3.90;;;3.60;;
2488;SDS011;1255;48.716;9.124;2023-06-10T13:45:52;3.80;;;3.50;;
2488;SDS011;1255;48.716;9.124;2023-06-10T13:48:18;5.37;;;4.10;;
2488;SDS011;1255;48.716;9.124;2023-06-10T13:50:46;3.40;;;3.20;;
2488;SDS011;1255;48.716;9.124;2023-06-10T13:53:13;3.93;;;3.63;;
2488;SDS011;1255;48.716;9.124;2023-06-10T13:55:39;3.87;;;3.57;;
2488;SDS011;1255;48.716;9.124;2023-06-10T13:58:06;3.33;;;3.03;;
2488;SDS011;1255;48.716;9.124;2023-06-10T14:00:33;3.50;;;3.20;;
2488;SDS011;1255;48.716;9.124;2023-06-10T14:03:01;4.40;;;3.70;;
2488;SDS011;1255;48.716;9.124;2023-06-10T14:05:28;3.37;;;3.07;;
2488;SDS011;1255;48.716;9.124;2023-06-10T14:07:55;3.90;;;3.60;;
2488;SDS011;1255;48.716;9.124;2023-06-10T14:10:22;5.03;;;3.83;;
2488;SDS011;1255;48.716;9.124;2023-06-10T14:12:49;3.43;;;3.13;;
2488;SDS011;1255;48.716;9.124;2023-06-10T14:15:16;3.30;;;3.10;;
2488;SDS011;1255;48.716;9.124;2023-06-10T14:17:43;3.53;;;3.20;;
2488;SDS011;1255;48.716;9.124;2023-06-10T14:20:11;4.33;;;3.53;;
2488;SDS011;1255;48.716;9.124;2023-06-10T14:22:38;3.60;;;3.30;;
2488;SDS011;1255;48.716;9.124;2023-06-10T14:25:05;3.23;;;2.93;;
2488;SDS011;1255;48.716;9.124;2023-06-10T14:27:33;3.50;;;3.20;;
2488;SDS011;1255;48.716;9.124;2023-06-10T14:29:59;3.83;;;3.53;;
2488;SDS011;1255;48.716;9.124;2023-06-10T14:32:27;3.83;;;3.53;;
2488;SDS011;1255;48.716;9.124;2023-06-10T14:34:53;4.07;;;3.67;;
2488;SDS011;1255;48.716;9.124;2023-06-10T14:37:21;3.93;;;3.63;;
2488;SDS011;1255;48.716;9.124;2023-06-10T14:39:48;3.23;;;3.03;;
2488;SDS011;1255;48.716;9.124;2023-06-10T14:42:15;4.10;;;3.70;;
2488;SDS011;1255;48.716;9.124;2023-06-10T14:44:41;6.20;;;3.33;;
2488;SDS011;1255;48.716;9.124;2023-06-10T14:47:08;4.20;;;3.80;;
2488;SDS011;1255;48.716;9.124;2023-06-10T14:49:35;3.33;;;3.10;;
2488;SDS011;1255;48.716;9.124;2023-06-10T14:52:01;3.63;;;3.33;;
2488;SDS011;1255;48.716;9.124;2023-06-10T14:54:30;3.70;;;3.40;;
2488;SDS011;1255;48.716;9.124;2023-06-10T14:56:56;3.87;;;3.47;;
2488;SDS011;1255;48.716;9.124;2023-06-10T14:59:23;4.30;;;3.90;;
2488;SDS011;1255;48.716;9.124;2023-06-10T15:01:50;3.50;;;3.20;;
2488;SDS011;1255;48.716;9.124;2023-06-10T15:04:17;3.60;;;3.30;;
2488;SDS011;1255;48.716;9.124;2023-06-10T15:06:43;3.30;;;3.00;;
2488;SDS011;1255;48.716;9.124;2023-06-10T15:09:10;3.43;;;3.13;;
2488;SDS011;1255;48.716;9.124;2023-06-10T15:11:38;3.87;;;3.10;;
2488;SDS011;1255;48.716;9.124;2023-06-10T15:14:05;4.17;;;3.87;;
2488;SDS011;1255;48.716;9.124;2023-06-10T15:16:31;4.60;;;4.20;;
2488;SDS011;1255;48.716;9.124;2023-06-10T15:18:58;4.27;;;3.93;;
2488;SDS011;1255;48.716;9.124;2023-06-10T15:21:25;4.30;;;4.00;;
2488;SDS011;1255;48.716;9.124;2023-06-10T15:23:51;3.80;;;3.40;;
2488;SDS011;1255;48.716;9.124;2023-06-10T15:26:18;3.67;;;3.37;;